Sainte-Rosalie, Canada
Current Conditions -  °F | °C
As of 1:00 AM on Sunday 26 Oct 2014 (Local Time) from CYHU Reporting Station
Overcast Overcast  
Wind Chill: 50°   Ceiling: 5000
Heat Index: 50°   Visibility: 9mi
Dew Point: 45°   Wind: 12mph
Humidity: 82%   Direction: 250°WSW
Pressure: 29.39"   Gusts: NA
Location:  45.65°N, 72.9°W
Report Text: CYHU 260500Z AUTO 25010KT 9SM BKN050 OVC110 10/07 A2939 RMK SLP953 DENSITY ALT 100FT
Loading
Personal Weather Stations






























Interactive Weather Map
Tropical Storm Tracking
New forecast layout! Learn more

10-Day Weather Forecast

Advertisements
Track Severe Weather on mobile